HISTORICAL SENSOR DATA

Sensor Data Report

DB LIVE
CURRENT TIME--:--:--
DEVICE NETWORK Gateway Status
13 ESP · realtime ~1s · history 60s
Weather WS-MOD-01
OFFLINE
Actuator ACT-MOD-01
OFFLINE
Mainboard L3 MB-L3-01
ONLINE
Mainboard L5 MB-L5-01
OFFLINE
Remote AC AC-REMOTE-01
OFFLINE
PZEM L3-01 PWR-L3-01
OFFLINE
PZEM L3-02 PWR-L3-02
OFFLINE
PZEM L3-03 PWR-L3-03
OFFLINE
PZEM L3-04 PWR-L3-04
OFFLINE
PZEM L5-01 PWR-L5-01
OFFLINE
PZEM L5-02 PWR-L5-02
OFFLINE
PZEM L5-03 PWR-L5-03
OFFLINE
PZEM L5-04 PWR-L5-04
OFFLINE
REPORT FILTER

Periode & Sensor

DATABASE HISTORY
RESET
QUICK RANGE Hari ini 7 hari 30 hari
PERIODE08 Aug 2026sampai 06 Sep 2026
TOTAL DATA43,385sensor readings
MINIMUM-0.50sesuai filter
AVERAGE85.21sesuai filter
MAXIMUM32,564.20sesuai filter
REPORT RESULT

Data Sensor

08/08/2026 — 06/09/2026 EXPORT CSV
NOTANGGALWAKTUDEVICECHANNELSENSORVALUEUNIT
2001 06/09/2026 11:50:00 MB-L5-01Mainboard Lantai 5 L5-AI-01 Analog Input 1 3.05 V
2002 06/09/2026 11:50:00 MB-L5-01Mainboard Lantai 5 L5-AI-05 Analog Input 5 3.05 V
2003 06/09/2026 11:50:00 MB-L5-01Mainboard Lantai 5 L5-AI-03 Analog Input 3 3.05 V
2004 06/09/2026 11:50:00 MB-L5-01Mainboard Lantai 5 L5-LUX-03 Illuminance / LUX 3 964.80 lux
2005 06/09/2026 11:50:00 MB-L5-01Mainboard Lantai 5 L5-SHT-01-RH SHT20 1 Humidity 37.90 %RH
2006 06/09/2026 11:50:00 MB-L5-01Mainboard Lantai 5 L5-SHT-03-RH SHT20 3 Humidity 37.90 %RH
2007 06/09/2026 11:50:00 MB-L5-01Mainboard Lantai 5 L5-SHT-03-T SHT20 3 Temperature 28.10 °C
2008 06/09/2026 11:50:00 MB-L5-01Mainboard Lantai 5 L5-LUX-02 Illuminance / LUX 2 2,654.70 lux
2009 06/09/2026 11:50:00 MB-L5-01Mainboard Lantai 5 L5-HFT-02 Heat Flow Temperature 2 28.40 °C
2010 06/09/2026 11:50:00 MB-L5-01Mainboard Lantai 5 L5-SHT-02-T SHT20 2 Temperature 27.90 °C
2011 06/09/2026 11:50:00 MB-L5-01Mainboard Lantai 5 L5-LUX-04 Illuminance / LUX 4 542.70 lux
2012 06/09/2026 11:50:00 MB-L5-01Mainboard Lantai 5 L5-ST-02 Surface Temperature 2 31.30 °C
2013 06/09/2026 11:50:00 MB-L5-01Mainboard Lantai 5 L5-SHT-02-RH SHT20 2 Humidity 38.30 %RH
2014 06/09/2026 11:50:00 MB-L5-01Mainboard Lantai 5 L5-RAD-02 Radiation 2 4.00 W/m²
2015 06/09/2026 11:50:00 WS-MOD-01Weather Station Module WS-WIND Kecepatan Angin 0.37 m/s
2016 06/09/2026 11:50:00 MB-L5-01Mainboard Lantai 5 L5-LUX-05 Illuminance / LUX 5 2,335.00 lux
2017 06/09/2026 10:56:00 WS-MOD-01Weather Station Module WS-DIR Arah Angin 68.00 °
2018 06/09/2026 10:56:00 MB-L5-01Mainboard Lantai 5 L5-HFT-01 Heat Flow Temperature 1 28.90 °C
2019 06/09/2026 10:56:00 MB-L5-01Mainboard Lantai 5 L5-ST-01 Surface Temperature 1 28.30 °C
2020 06/09/2026 10:56:00 MB-L5-01Mainboard Lantai 5 L5-BGT-02 Black Globe Temperature 2 27.40 °C
2021 06/09/2026 10:56:00 MB-L5-01Mainboard Lantai 5 L5-AI-01 Analog Input 1 3.05 V
2022 06/09/2026 10:56:00 MB-L5-01Mainboard Lantai 5 L5-AI-05 Analog Input 5 3.05 V
2023 06/09/2026 10:56:00 MB-L5-01Mainboard Lantai 5 L5-AI-03 Analog Input 3 3.05 V
2024 06/09/2026 10:56:00 MB-L5-01Mainboard Lantai 5 L5-LUX-03 Illuminance / LUX 3 948.60 lux
2025 06/09/2026 10:56:00 MB-L5-01Mainboard Lantai 5 L5-SHT-01-RH SHT20 1 Humidity 38.70 %RH
2026 06/09/2026 10:56:00 MB-L5-01Mainboard Lantai 5 L5-SHT-03-RH SHT20 3 Humidity 39.10 %RH
2027 06/09/2026 10:56:00 MB-L5-01Mainboard Lantai 5 L5-SHT-03-T SHT20 3 Temperature 28.40 °C
2028 06/09/2026 10:56:00 MB-L5-01Mainboard Lantai 5 L5-LUX-02 Illuminance / LUX 2 2,529.30 lux
2029 06/09/2026 10:56:00 MB-L5-01Mainboard Lantai 5 L5-HFT-02 Heat Flow Temperature 2 28.10 °C
2030 06/09/2026 10:56:00 MB-L5-01Mainboard Lantai 5 L5-SHT-02-T SHT20 2 Temperature 28.20 °C
2031 06/09/2026 10:56:00 MB-L5-01Mainboard Lantai 5 L5-ST-02 Surface Temperature 2 30.60 °C
2032 06/09/2026 10:56:00 MB-L5-01Mainboard Lantai 5 L5-SHT-02-RH SHT20 2 Humidity 39.80 %RH
2033 06/09/2026 10:56:00 MB-L5-01Mainboard Lantai 5 L5-RAD-02 Radiation 2 4.00 W/m²
2034 06/09/2026 10:56:00 WS-MOD-01Weather Station Module WS-WIND Kecepatan Angin 7.09 m/s
2035 06/09/2026 10:56:00 MB-L5-01Mainboard Lantai 5 L5-LUX-05 Illuminance / LUX 5 1,878.30 lux
2036 06/09/2026 10:56:00 MB-L5-01Mainboard Lantai 5 L5-SHT-01-T SHT20 1 Temperature 28.90 °C
2037 06/09/2026 10:56:00 WS-MOD-01Weather Station Module WS-TEMP Suhu Udara 27.00 °C
2038 06/09/2026 10:56:00 MB-L5-01Mainboard Lantai 5 L5-RAD-01 Radiation 1 4.00 W/m²
2039 06/09/2026 10:56:00 WS-MOD-01Weather Station Module WS-RH Kelembapan Udara 42.30 %RH
2040 06/09/2026 10:56:00 WS-MOD-01Weather Station Module WS-PRES Tekanan Udara 911.00 hPa
2041 06/09/2026 10:56:00 MB-L5-01Mainboard Lantai 5 L5-BGT-01 Black Globe Temperature 1 27.70 °C
2042 06/09/2026 10:56:00 MB-L5-01Mainboard Lantai 5 L5-BGT-03 Black Globe Temperature 3 27.70 °C
2043 06/09/2026 10:56:00 MB-L5-01Mainboard Lantai 5 L5-AI-02 Analog Input 2 3.05 V
2044 06/09/2026 10:56:00 MB-L5-01Mainboard Lantai 5 L5-AI-06 Analog Input 6 3.05 V
2045 06/09/2026 10:56:00 MB-L5-01Mainboard Lantai 5 L5-LUX-01 Illuminance / LUX 1 581.60 lux
2046 06/09/2026 10:56:00 MB-L5-01Mainboard Lantai 5 L5-AI-04 Analog Input 4 3.05 V
2047 06/09/2026 10:55:00 MB-L5-01Mainboard Lantai 5 L5-ST-01 Surface Temperature 1 28.40 °C
2048 06/09/2026 10:55:00 MB-L5-01Mainboard Lantai 5 L5-BGT-02 Black Globe Temperature 2 27.20 °C
2049 06/09/2026 10:55:00 MB-L5-01Mainboard Lantai 5 L5-AI-01 Analog Input 1 3.05 V
2050 06/09/2026 10:55:00 MB-L5-01Mainboard Lantai 5 L5-AI-05 Analog Input 5 3.05 V
2051 06/09/2026 10:55:00 MB-L5-01Mainboard Lantai 5 L5-AI-03 Analog Input 3 3.05 V
2052 06/09/2026 10:55:00 MB-L5-01Mainboard Lantai 5 L5-LUX-03 Illuminance / LUX 3 950.20 lux
2053 06/09/2026 10:55:00 MB-L5-01Mainboard Lantai 5 L5-SHT-01-RH SHT20 1 Humidity 39.30 %RH
2054 06/09/2026 10:55:00 MB-L5-01Mainboard Lantai 5 L5-SHT-03-RH SHT20 3 Humidity 39.40 %RH
2055 06/09/2026 10:55:00 MB-L5-01Mainboard Lantai 5 L5-SHT-03-T SHT20 3 Temperature 28.20 °C
2056 06/09/2026 10:55:00 MB-L5-01Mainboard Lantai 5 L5-LUX-02 Illuminance / LUX 2 2,527.60 lux
2057 06/09/2026 10:55:00 MB-L5-01Mainboard Lantai 5 L5-HFT-02 Heat Flow Temperature 2 28.10 °C
2058 06/09/2026 10:55:00 MB-L5-01Mainboard Lantai 5 L5-SHT-02-T SHT20 2 Temperature 27.90 °C
2059 06/09/2026 10:55:00 MB-L5-01Mainboard Lantai 5 L5-ST-02 Surface Temperature 2 30.50 °C
2060 06/09/2026 10:55:00 MB-L5-01Mainboard Lantai 5 L5-SHT-02-RH SHT20 2 Humidity 40.90 %RH
2061 06/09/2026 10:55:00 MB-L5-01Mainboard Lantai 5 L5-RAD-02 Radiation 2 4.00 W/m²
2062 06/09/2026 10:55:00 WS-MOD-01Weather Station Module WS-WIND Kecepatan Angin 2.38 m/s
2063 06/09/2026 10:55:00 MB-L5-01Mainboard Lantai 5 L5-LUX-05 Illuminance / LUX 5 1,878.10 lux
2064 06/09/2026 10:55:00 MB-L5-01Mainboard Lantai 5 L5-SHT-01-T SHT20 1 Temperature 28.70 °C
2065 06/09/2026 10:55:00 WS-MOD-01Weather Station Module WS-TEMP Suhu Udara 26.30 °C
2066 06/09/2026 10:55:00 MB-L5-01Mainboard Lantai 5 L5-RAD-01 Radiation 1 4.00 W/m²
2067 06/09/2026 10:55:00 WS-MOD-01Weather Station Module WS-RH Kelembapan Udara 44.00 %RH
2068 06/09/2026 10:55:00 WS-MOD-01Weather Station Module WS-PRES Tekanan Udara 911.00 hPa
2069 06/09/2026 10:55:00 MB-L5-01Mainboard Lantai 5 L5-BGT-01 Black Globe Temperature 1 27.60 °C
2070 06/09/2026 10:55:00 MB-L5-01Mainboard Lantai 5 L5-BGT-03 Black Globe Temperature 3 27.60 °C
2071 06/09/2026 10:55:00 MB-L5-01Mainboard Lantai 5 L5-AI-02 Analog Input 2 3.05 V
2072 06/09/2026 10:55:00 MB-L5-01Mainboard Lantai 5 L5-AI-06 Analog Input 6 3.05 V
2073 06/09/2026 10:55:00 MB-L5-01Mainboard Lantai 5 L5-LUX-01 Illuminance / LUX 1 586.10 lux
2074 06/09/2026 10:55:00 MB-L5-01Mainboard Lantai 5 L5-AI-04 Analog Input 4 3.05 V
2075 06/09/2026 10:55:00 WS-MOD-01Weather Station Module WS-DIR Arah Angin 151.80 °
2076 06/09/2026 10:55:00 MB-L5-01Mainboard Lantai 5 L5-HFT-01 Heat Flow Temperature 1 29.00 °C
2077 06/09/2026 10:54:00 MB-L5-01Mainboard Lantai 5 L5-BGT-02 Black Globe Temperature 2 27.10 °C
2078 06/09/2026 10:54:00 MB-L5-01Mainboard Lantai 5 L5-AI-01 Analog Input 1 3.05 V
2079 06/09/2026 10:54:00 MB-L5-01Mainboard Lantai 5 L5-AI-05 Analog Input 5 3.05 V
2080 06/09/2026 10:54:00 MB-L5-01Mainboard Lantai 5 L5-AI-03 Analog Input 3 3.05 V
2081 06/09/2026 10:54:00 MB-L5-01Mainboard Lantai 5 L5-LUX-03 Illuminance / LUX 3 954.10 lux
2082 06/09/2026 10:54:00 MB-L5-01Mainboard Lantai 5 L5-SHT-01-RH SHT20 1 Humidity 40.10 %RH
2083 06/09/2026 10:54:00 MB-L5-01Mainboard Lantai 5 L5-SHT-03-RH SHT20 3 Humidity 41.30 %RH
2084 06/09/2026 10:54:00 MB-L5-01Mainboard Lantai 5 L5-SHT-03-T SHT20 3 Temperature 27.70 °C
2085 06/09/2026 10:54:00 MB-L5-01Mainboard Lantai 5 L5-LUX-02 Illuminance / LUX 2 2,524.90 lux
2086 06/09/2026 10:54:00 MB-L5-01Mainboard Lantai 5 L5-HFT-02 Heat Flow Temperature 2 27.70 °C
2087 06/09/2026 10:54:00 MB-L5-01Mainboard Lantai 5 L5-SHT-02-T SHT20 2 Temperature 27.50 °C
2088 06/09/2026 10:54:00 MB-L5-01Mainboard Lantai 5 L5-ST-02 Surface Temperature 2 30.30 °C
2089 06/09/2026 10:54:00 MB-L5-01Mainboard Lantai 5 L5-SHT-02-RH SHT20 2 Humidity 41.70 %RH
2090 06/09/2026 10:54:00 MB-L5-01Mainboard Lantai 5 L5-RAD-02 Radiation 2 4.00 W/m²
2091 06/09/2026 10:54:00 MB-L5-01Mainboard Lantai 5 L5-LUX-05 Illuminance / LUX 5 1,878.60 lux
2092 06/09/2026 10:54:00 MB-L5-01Mainboard Lantai 5 L5-SHT-01-T SHT20 1 Temperature 28.20 °C
2093 06/09/2026 10:54:00 MB-L5-01Mainboard Lantai 5 L5-RAD-01 Radiation 1 4.00 W/m²
2094 06/09/2026 10:54:00 MB-L5-01Mainboard Lantai 5 L5-BGT-01 Black Globe Temperature 1 27.40 °C
2095 06/09/2026 10:54:00 MB-L5-01Mainboard Lantai 5 L5-BGT-03 Black Globe Temperature 3 27.40 °C
2096 06/09/2026 10:54:00 MB-L5-01Mainboard Lantai 5 L5-AI-02 Analog Input 2 3.05 V
2097 06/09/2026 10:54:00 MB-L5-01Mainboard Lantai 5 L5-AI-06 Analog Input 6 3.05 V
2098 06/09/2026 10:54:00 MB-L5-01Mainboard Lantai 5 L5-LUX-01 Illuminance / LUX 1 596.90 lux
2099 06/09/2026 10:54:00 MB-L5-01Mainboard Lantai 5 L5-AI-04 Analog Input 4 3.05 V
2100 06/09/2026 10:54:00 MB-L5-01Mainboard Lantai 5 L5-HFT-01 Heat Flow Temperature 1 28.70 °C
Menampilkan maksimal 100 data per halaman